createdAt,value
2023-04-20T00:00:35.820Z,4.57
2023-04-20T00:05:37.491Z,9.35
2023-04-20T00:10:39.464Z,7.50
2023-04-20T00:15:41.121Z,5.28
2023-04-20T00:20:42.727Z,6.97
2023-04-20T00:25:44.559Z,7.47
2023-04-20T00:30:46.231Z,6.05
2023-04-20T00:35:48.119Z,4.70
2023-04-20T00:40:50.655Z,5.45
2023-04-20T00:45:52.495Z,5.35
2023-04-20T00:50:54.663Z,8.68
2023-04-20T00:55:56.724Z,12.07
2023-04-20T01:00:58.781Z,6.10
2023-04-20T01:06:01.387Z,7.35
2023-04-20T01:11:03.635Z,4.80
2023-04-20T01:16:05.413Z,4.05
2023-04-20T01:21:07.244Z,5.88
2023-04-20T01:26:11.267Z,4.85
2023-04-20T01:31:13.741Z,4.65
2023-04-20T01:36:15.950Z,6.13
2023-04-20T01:41:19.905Z,5.53
2023-04-20T01:46:21.784Z,5.75
2023-04-20T01:51:23.440Z,7.40
2023-04-20T01:56:25.164Z,5.70
2023-04-20T02:01:27.051Z,7.07
2023-04-20T02:06:29.076Z,6.88
2023-04-20T02:11:30.820Z,6.05
2023-04-20T02:16:32.534Z,5.70
2023-04-20T02:21:34.213Z,7.07
2023-04-20T02:26:36.199Z,5.82
2023-04-20T02:31:37.975Z,7.38
2023-04-20T02:36:39.758Z,7.03
2023-04-20T02:41:41.259Z,5.13
2023-04-20T02:46:43.468Z,6.88
2023-04-20T02:51:45.702Z,6.97
2023-04-20T02:56:47.319Z,10.35
2023-04-20T03:01:49.457Z,7.00
2023-04-20T03:06:55.144Z,8.23
2023-04-20T03:17:24.138Z,7.10
2023-04-20T03:22:26.288Z,5.60
2023-04-20T03:27:32.589Z,6.38
2023-04-20T03:32:42.089Z,5.80
2023-04-20T03:37:43.930Z,6.13
2023-04-20T03:42:46.006Z,6.13
2023-04-20T03:47:47.886Z,6.93
2023-04-20T03:52:49.604Z,7.75
2023-04-20T03:57:51.359Z,7.43
2023-04-20T04:02:53.635Z,7.70
2023-04-20T04:08:00.441Z,6.65
2023-04-20T04:13:03.566Z,5.50
2023-04-20T04:18:05.940Z,7.35
2023-04-20T04:23:10.688Z,5.82
2023-04-20T04:28:31.014Z,6.65
2023-04-20T04:33:45.919Z,5.63
2023-04-20T04:38:53.312Z,7.03
2023-04-20T04:43:56.685Z,9.48
2023-04-20T04:49:04.606Z,8.55
2023-04-20T04:54:06.312Z,7.55
2023-04-20T04:59:08.164Z,7.15
2023-04-20T05:04:09.868Z,8.65
2023-04-20T05:09:11.572Z,10.27
2023-04-20T05:14:13.712Z,12.63
2023-04-20T05:19:15.441Z,8.60
2023-04-20T05:24:18.459Z,12.13
2023-04-20T05:29:20.222Z,9.10
2023-04-20T05:34:21.808Z,9.85
2023-04-20T05:39:23.449Z,9.43
2023-04-20T05:44:25.504Z,8.02
2023-04-20T05:49:27.077Z,8.52
2023-04-20T05:54:29.402Z,10.98
2023-04-20T05:59:31.634Z,8.05
2023-04-20T06:04:33.407Z,8.05
2023-04-20T06:09:35.770Z,8.52
2023-04-20T06:14:37.328Z,10.80
2023-04-20T06:19:39.097Z,7.05
2023-04-20T06:24:41.109Z,8.30
2023-04-20T06:29:42.685Z,8.65
2023-04-20T06:34:44.534Z,9.48
2023-04-20T06:39:46.130Z,8.48
2023-04-20T06:44:47.745Z,7.15
2023-04-20T06:49:49.284Z,8.55
2023-04-20T06:54:50.841Z,8.82
2023-04-20T06:59:52.422Z,8.55
2023-04-20T07:04:59.758Z,8.32
2023-04-20T07:10:01.344Z,8.55
2023-04-20T07:15:04.413Z,8.13
2023-04-20T07:20:07.011Z,8.32
2023-04-20T07:25:09.688Z,12.15
2023-04-20T07:30:12.000Z,9.82
2023-04-20T07:35:13.569Z,6.80
2023-04-20T07:40:15.147Z,8.80
2023-04-20T07:45:16.733Z,7.97
2023-04-20T07:50:18.247Z,8.13
2023-04-20T07:55:19.878Z,7.28
2023-04-20T08:00:21.434Z,5.22
2023-04-20T08:05:23.190Z,6.47
2023-04-20T08:10:25.013Z,5.18
2023-04-20T08:15:26.588Z,5.82
2023-04-20T08:20:28.196Z,5.35
2023-04-20T08:25:29.726Z,6.43
2023-04-20T08:30:31.210Z,4.90
2023-04-20T08:35:32.696Z,4.25
2023-04-20T08:40:36.329Z,4.32
2023-04-20T08:45:38.820Z,4.40
2023-04-20T08:50:43.725Z,3.63
2023-04-20T08:55:45.320Z,2.45
2023-04-20T09:00:48.117Z,3.15
2023-04-20T09:05:49.947Z,3.67
2023-04-20T09:10:51.447Z,3.00
2023-04-20T09:15:53.044Z,3.15
2023-04-20T09:20:55.227Z,5.20
2023-04-20T09:25:56.870Z,3.78
2023-04-20T09:30:58.386Z,3.80
2023-04-20T09:36:04.737Z,3.67
2023-04-20T09:41:07.144Z,2.88
2023-04-20T09:46:09.171Z,3.92
2023-04-20T09:51:11.220Z,2.00
2023-04-20T09:56:15.398Z,3.00
2023-04-20T10:01:17.529Z,2.03
2023-04-20T10:06:19.215Z,1.13
2023-04-20T10:11:51.550Z,1.55
2023-04-20T10:17:09.559Z,3.15
2023-04-20T10:22:26.516Z,1.25
2023-04-20T10:27:28.462Z,2.10
2023-04-20T10:32:30.125Z,0.90
2023-04-20T10:37:32.359Z,1.23
2023-04-20T10:42:44.359Z,0.95
2023-04-20T10:47:45.926Z,0.43
2023-04-20T10:52:47.671Z,1.02
2023-04-20T10:57:50.027Z,1.00
2023-04-20T11:02:56.216Z,1.73
2023-04-20T11:08:00.381Z,1.35
2023-04-20T11:13:02.241Z,1.88
2023-04-20T11:18:11.501Z,2.10
2023-04-20T11:23:13.109Z,1.95
2023-04-20T11:28:14.914Z,3.85
2023-04-20T11:33:32.283Z,3.13
2023-04-20T11:38:34.866Z,2.80
2023-04-20T11:43:36.369Z,1.65
2023-04-20T11:48:37.878Z,2.38
2023-04-20T11:53:39.414Z,5.22
2023-04-20T11:58:41.384Z,4.68
2023-04-20T12:03:47.015Z,4.40
2023-04-20T12:13:51.450Z,3.20
2023-04-20T12:18:53.471Z,4.53
2023-04-20T12:23:55.038Z,3.13
2023-04-20T12:28:57.782Z,3.47
2023-04-20T12:33:59.693Z,3.65
2023-04-20T12:39:01.815Z,3.47
2023-04-20T12:44:06.469Z,5.95
2023-04-20T12:49:10.133Z,5.63
2023-04-20T12:54:12.232Z,5.85
2023-04-20T12:59:14.005Z,5.43
2023-04-20T13:04:16.133Z,6.80
2023-04-20T13:09:18.158Z,4.95
2023-04-20T13:14:20.352Z,5.50
2023-04-20T13:19:22.128Z,5.32
2023-04-20T13:24:23.676Z,7.35
2023-04-20T13:29:26.120Z,5.38
2023-04-20T13:34:27.660Z,5.18
2023-04-20T13:39:29.747Z,5.20
2023-04-20T13:44:31.344Z,4.40
2023-04-20T13:49:32.933Z,4.20
2023-04-20T13:54:34.429Z,6.10
2023-04-20T13:59:36.524Z,5.80
2023-04-20T14:04:38.114Z,4.45
2023-04-20T14:09:39.811Z,5.15
2023-04-20T14:14:41.453Z,5.80
2023-04-20T14:19:43.455Z,4.70
2023-04-20T14:24:45.016Z,5.47
2023-04-20T14:29:47.336Z,5.88
2023-04-20T14:34:48.878Z,5.38
2023-04-20T14:39:50.999Z,4.45
2023-04-20T14:44:53.359Z,4.45
2023-04-20T14:49:56.135Z,5.13
2023-04-20T14:54:57.878Z,5.85
2023-04-20T14:59:59.982Z,6.20
2023-04-20T15:05:01.980Z,3.92
2023-04-20T15:10:04.381Z,5.15
2023-04-20T15:15:06.652Z,5.15
2023-04-20T15:20:09.140Z,5.15
2023-04-20T15:25:11.105Z,5.00
2023-04-20T15:30:12.870Z,5.28
2023-04-20T15:35:14.761Z,5.53
2023-04-20T15:40:16.397Z,5.47
2023-04-20T15:45:18.364Z,5.35
2023-04-20T15:50:20.666Z,5.70
2023-04-20T15:55:22.544Z,4.35
2023-04-20T16:00:24.983Z,7.00
2023-04-20T16:05:26.591Z,5.20
2023-04-20T16:10:28.137Z,4.60
2023-04-20T16:15:29.763Z,4.55
2023-04-20T16:20:31.361Z,6.72
2023-04-20T16:25:32.883Z,4.28
2023-04-20T16:30:34.932Z,6.75
2023-04-20T16:35:36.638Z,8.20
2023-04-20T16:40:38.193Z,7.15
2023-04-20T16:45:40.026Z,6.07
2023-04-20T16:50:42.313Z,5.97
2023-04-20T16:55:44.061Z,5.60
2023-04-20T17:00:45.584Z,4.85
2023-04-20T17:05:47.225Z,8.75
2023-04-20T17:10:48.761Z,7.85
2023-04-20T17:15:50.270Z,6.35
2023-04-20T17:20:51.842Z,6.43
2023-04-20T17:25:54.412Z,6.65
2023-04-20T17:30:55.896Z,6.30
2023-04-20T17:35:57.531Z,7.03
2023-04-20T17:40:59.057Z,6.00
2023-04-20T17:46:00.659Z,7.00
2023-04-20T17:51:02.371Z,6.70
2023-04-20T17:56:03.999Z,5.53
2023-04-20T18:01:05.641Z,6.47
2023-04-20T18:06:07.355Z,7.20
2023-04-20T18:11:08.893Z,6.80
2023-04-20T18:16:10.440Z,6.32
2023-04-20T18:21:11.975Z,6.50
2023-04-20T18:26:13.501Z,6.95
2023-04-20T18:31:15.119Z,6.38
2023-04-20T18:36:16.769Z,7.82
2023-04-20T18:41:18.406Z,6.63
2023-04-20T18:46:20.099Z,8.10
2023-04-20T18:51:21.673Z,11.57
2023-04-20T18:56:23.209Z,11.18
2023-04-20T19:01:24.813Z,9.85
2023-04-20T19:06:26.519Z,11.02
2023-04-20T19:11:30.771Z,9.35
2023-04-20T19:16:33.705Z,9.23
2023-04-20T19:21:35.395Z,10.18
2023-04-20T19:26:36.928Z,10.73
2023-04-20T19:31:39.107Z,10.07
2023-04-20T19:36:41.037Z,10.52
2023-04-20T19:41:42.578Z,9.60
2023-04-20T19:46:44.146Z,11.15
2023-04-20T19:51:45.610Z,12.52
2023-04-20T19:56:47.144Z,12.25
2023-04-20T20:01:50.655Z,12.52
2023-04-20T20:06:52.488Z,11.40
2023-04-20T20:11:54.055Z,11.10
2023-04-20T20:16:55.548Z,10.15
2023-04-20T20:21:57.179Z,11.52
2023-04-20T20:26:58.668Z,11.95
2023-04-20T20:32:00.177Z,16.63
2023-04-20T20:37:01.687Z,15.48
2023-04-20T20:42:03.379Z,15.68
2023-04-20T20:47:06.093Z,16.20
2023-04-20T20:52:07.948Z,19.05
2023-04-20T20:57:10.359Z,21.42
2023-04-20T21:02:12.313Z,21.23
2023-04-20T21:07:14.560Z,22.85
2023-04-20T21:12:16.119Z,21.77
2023-04-20T21:17:18.526Z,22.85
2023-04-20T21:22:20.661Z,21.33
2023-04-20T21:27:22.930Z,25.67
2023-04-20T21:32:25.353Z,24.17
2023-04-20T21:37:27.245Z,25.95
2023-04-20T21:42:28.926Z,29.90
2023-04-20T21:47:31.228Z,27.95
2023-04-20T21:52:33.919Z,29.15
2023-04-20T21:57:35.411Z,32.60
2023-04-20T22:02:37.072Z,27.38
2023-04-20T22:07:39.489Z,30.90
2023-04-20T22:12:42.168Z,34.33
2023-04-20T22:17:44.406Z,34.15
2023-04-20T22:22:46.319Z,32.85
2023-04-20T22:27:48.201Z,33.53
2023-04-20T22:32:50.551Z,35.08
2023-04-20T22:37:52.299Z,42.92
2023-04-20T22:42:54.114Z,38.65
2023-04-20T22:47:56.146Z,34.55
2023-04-20T22:52:57.705Z,32.28
2023-04-20T22:57:59.643Z,36.75
2023-04-20T23:03:01.468Z,36.22
2023-04-20T23:08:03.427Z,40.35
2023-04-20T23:13:05.230Z,34.92
2023-04-20T23:18:07.246Z,38.58
2023-04-20T23:23:09.169Z,35.78
2023-04-20T23:28:10.748Z,39.20
2023-04-20T23:33:12.727Z,38.30
2023-04-20T23:38:15.222Z,41.60
2023-04-20T23:43:17.240Z,39.53
2023-04-20T23:48:18.758Z,45.13
2023-04-20T23:53:20.254Z,42.00
2023-04-20T23:58:25.887Z,47.00
